sensor_id;sensor_type;location;lat;lon;timestamp;P1;durP1;ratioP1;P2;durP2;ratioP2
12275;SDS011;6200;48.144;11.424;2023-11-19T00:02:18;0.40;;;0.40;;
12275;SDS011;6200;48.144;11.424;2023-11-19T00:04:44;0.40;;;0.40;;
12275;SDS011;6200;48.144;11.424;2023-11-19T00:07:09;0.40;;;0.40;;
12275;SDS011;6200;48.144;11.424;2023-11-19T00:09:37;0.30;;;0.30;;
12275;SDS011;6200;48.144;11.424;2023-11-19T00:12:03;0.43;;;0.43;;
12275;SDS011;6200;48.144;11.424;2023-11-19T00:14:30;0.40;;;0.40;;
12275;SDS011;6200;48.144;11.424;2023-11-19T00:16:55;0.40;;;0.40;;
12275;SDS011;6200;48.144;11.424;2023-11-19T00:19:21;0.60;;;0.60;;
12275;SDS011;6200;48.144;11.424;2023-11-19T00:21:47;0.50;;;0.50;;
12275;SDS011;6200;48.144;11.424;2023-11-19T00:24:12;0.40;;;0.40;;
12275;SDS011;6200;48.144;11.424;2023-11-19T00:26:41;0.30;;;0.30;;
12275;SDS011;6200;48.144;11.424;2023-11-19T00:29:06;0.40;;;0.40;;
12275;SDS011;6200;48.144;11.424;2023-11-19T00:31:32;0.40;;;0.40;;
12275;SDS011;6200;48.144;11.424;2023-11-19T00:33:58;0.30;;;0.30;;
12275;SDS011;6200;48.144;11.424;2023-11-19T00:36:23;0.50;;;0.50;;
12275;SDS011;6200;48.144;11.424;2023-11-19T00:38:49;0.30;;;0.30;;
12275;SDS011;6200;48.144;11.424;2023-11-19T00:41:15;0.40;;;0.40;;
12275;SDS011;6200;48.144;11.424;2023-11-19T00:43:42;0.30;;;0.30;;
12275;SDS011;6200;48.144;11.424;2023-11-19T00:46:07;0.30;;;0.30;;
12275;SDS011;6200;48.144;11.424;2023-11-19T00:48:33;0.50;;;0.50;;
12275;SDS011;6200;48.144;11.424;2023-11-19T00:50:58;0.40;;;0.40;;
12275;SDS011;6200;48.144;11.424;2023-11-19T00:53:24;0.60;;;0.60;;
12275;SDS011;6200;48.144;11.424;2023-11-19T00:55:50;0.40;;;0.40;;
12275;SDS011;6200;48.144;11.424;2023-11-19T00:58:15;0.33;;;0.33;;
12275;SDS011;6200;48.144;11.424;2023-11-19T01:00:43;0.40;;;0.40;;
12275;SDS011;6200;48.144;11.424;2023-11-19T01:03:08;0.30;;;0.30;;
12275;SDS011;6200;48.144;11.424;2023-11-19T01:05:34;0.30;;;0.30;;
12275;SDS011;6200;48.144;11.424;2023-11-19T01:07:59;0.30;;;0.30;;
12275;SDS011;6200;48.144;11.424;2023-11-19T01:10:25;0.40;;;0.40;;
12275;SDS011;6200;48.144;11.424;2023-11-19T01:12:51;0.30;;;0.30;;
12275;SDS011;6200;48.144;11.424;2023-11-19T01:15:17;0.43;;;0.43;;
12275;SDS011;6200;48.144;11.424;2023-11-19T01:17:44;0.30;;;0.30;;
12275;SDS011;6200;48.144;11.424;2023-11-19T01:20:10;0.30;;;0.30;;
12275;SDS011;6200;48.144;11.424;2023-11-19T01:22:38;0.30;;;0.30;;
12275;SDS011;6200;48.144;11.424;2023-11-19T01:25:03;0.30;;;0.30;;
12275;SDS011;6200;48.144;11.424;2023-11-19T01:27:30;0.30;;;0.30;;
12275;SDS011;6200;48.144;11.424;2023-11-19T01:29:56;0.37;;;0.37;;
12275;SDS011;6200;48.144;11.424;2023-11-19T01:32:21;0.47;;;0.47;;
12275;SDS011;6200;48.144;11.424;2023-11-19T01:34:49;0.40;;;0.40;;
12275;SDS011;6200;48.144;11.424;2023-11-19T01:37:14;0.33;;;0.33;;
12275;SDS011;6200;48.144;11.424;2023-11-19T01:39:43;0.40;;;0.40;;
12275;SDS011;6200;48.144;11.424;2023-11-19T01:42:09;0.40;;;0.40;;
12275;SDS011;6200;48.144;11.424;2023-11-19T01:44:34;0.37;;;0.37;;
12275;SDS011;6200;48.144;11.424;2023-11-19T01:47:00;0.30;;;0.30;;
12275;SDS011;6200;48.144;11.424;2023-11-19T01:49:26;0.30;;;0.30;;
12275;SDS011;6200;48.144;11.424;2023-11-19T01:51:52;0.30;;;0.30;;
12275;SDS011;6200;48.144;11.424;2023-11-19T01:54:18;0.30;;;0.30;;
12275;SDS011;6200;48.144;11.424;2023-11-19T01:56:43;0.37;;;0.37;;
12275;SDS011;6200;48.144;11.424;2023-11-19T01:59:09;0.30;;;0.30;;
12275;SDS011;6200;48.144;11.424;2023-11-19T02:01:38;0.40;;;0.40;;
12275;SDS011;6200;48.144;11.424;2023-11-19T02:04:05;0.30;;;0.30;;
12275;SDS011;6200;48.144;11.424;2023-11-19T02:06:31;0.40;;;0.40;;
12275;SDS011;6200;48.144;11.424;2023-11-19T02:08:59;0.30;;;0.30;;
12275;SDS011;6200;48.144;11.424;2023-11-19T02:11:25;0.30;;;0.30;;
12275;SDS011;6200;48.144;11.424;2023-11-19T02:13:54;0.30;;;0.30;;
12275;SDS011;6200;48.144;11.424;2023-11-19T02:16:20;0.40;;;0.40;;
12275;SDS011;6200;48.144;11.424;2023-11-19T02:18:46;0.30;;;0.30;;
12275;SDS011;6200;48.144;11.424;2023-11-19T02:21:12;0.30;;;0.30;;
12275;SDS011;6200;48.144;11.424;2023-11-19T02:23:39;0.40;;;0.40;;
12275;SDS011;6200;48.144;11.424;2023-11-19T02:26:22;0.30;;;0.30;;
12275;SDS011;6200;48.144;11.424;2023-11-19T02:29:04;0.20;;;0.20;;
12275;SDS011;6200;48.144;11.424;2023-11-19T02:31:31;0.30;;;0.30;;
12275;SDS011;6200;48.144;11.424;2023-11-19T02:33:57;0.30;;;0.30;;
12275;SDS011;6200;48.144;11.424;2023-11-19T02:36:25;0.30;;;0.30;;
12275;SDS011;6200;48.144;11.424;2023-11-19T02:38:50;0.30;;;0.30;;
12275;SDS011;6200;48.144;11.424;2023-11-19T02:41:16;0.37;;;0.37;;
12275;SDS011;6200;48.144;11.424;2023-11-19T02:43:41;0.30;;;0.30;;
12275;SDS011;6200;48.144;11.424;2023-11-19T02:46:07;0.30;;;0.30;;
12275;SDS011;6200;48.144;11.424;2023-11-19T02:48:33;0.20;;;0.20;;
12275;SDS011;6200;48.144;11.424;2023-11-19T02:51:02;0.20;;;0.20;;
12275;SDS011;6200;48.144;11.424;2023-11-19T02:53:31;0.20;;;0.20;;
12275;SDS011;6200;48.144;11.424;2023-11-19T02:55:57;0.30;;;0.30;;
12275;SDS011;6200;48.144;11.424;2023-11-19T02:58:31;0.20;;;0.20;;
12275;SDS011;6200;48.144;11.424;2023-11-19T03:00:57;0.20;;;0.20;;
12275;SDS011;6200;48.144;11.424;2023-11-19T03:03:26;0.20;;;0.20;;
12275;SDS011;6200;48.144;11.424;2023-11-19T03:06:06;0.33;;;0.33;;
12275;SDS011;6200;48.144;11.424;2023-11-19T03:08:32;0.20;;;0.20;;
12275;SDS011;6200;48.144;11.424;2023-11-19T03:11:00;0.30;;;0.30;;
12275;SDS011;6200;48.144;11.424;2023-11-19T03:13:25;0.20;;;0.20;;
12275;SDS011;6200;48.144;11.424;2023-11-19T03:15:51;0.20;;;0.20;;
12275;SDS011;6200;48.144;11.424;2023-11-19T03:18:18;0.20;;;0.20;;
12275;SDS011;6200;48.144;11.424;2023-11-19T03:20:45;0.30;;;0.30;;
12275;SDS011;6200;48.144;11.424;2023-11-19T03:23:11;0.20;;;0.20;;
12275;SDS011;6200;48.144;11.424;2023-11-19T03:25:37;0.30;;;0.30;;
12275;SDS011;6200;48.144;11.424;2023-11-19T03:28:03;0.30;;;0.30;;
12275;SDS011;6200;48.144;11.424;2023-11-19T03:30:29;0.20;;;0.20;;
12275;SDS011;6200;48.144;11.424;2023-11-19T03:32:55;0.30;;;0.30;;
12275;SDS011;6200;48.144;11.424;2023-11-19T03:35:27;0.30;;;0.30;;
12275;SDS011;6200;48.144;11.424;2023-11-19T03:37:53;0.30;;;0.30;;
12275;SDS011;6200;48.144;11.424;2023-11-19T03:40:19;0.30;;;0.30;;
12275;SDS011;6200;48.144;11.424;2023-11-19T03:42:47;0.20;;;0.20;;
12275;SDS011;6200;48.144;11.424;2023-11-19T03:45:13;0.20;;;0.20;;
12275;SDS011;6200;48.144;11.424;2023-11-19T03:47:40;0.20;;;0.20;;
12275;SDS011;6200;48.144;11.424;2023-11-19T03:50:06;0.30;;;0.30;;
12275;SDS011;6200;48.144;11.424;2023-11-19T03:52:35;0.37;;;0.37;;
12275;SDS011;6200;48.144;11.424;2023-11-19T03:55:01;0.20;;;0.20;;
12275;SDS011;6200;48.144;11.424;2023-11-19T03:57:28;0.30;;;0.30;;
12275;SDS011;6200;48.144;11.424;2023-11-19T03:59:53;0.20;;;0.20;;
12275;SDS011;6200;48.144;11.424;2023-11-19T04:02:20;0.20;;;0.20;;
12275;SDS011;6200;48.144;11.424;2023-11-19T04:04:46;0.20;;;0.20;;
12275;SDS011;6200;48.144;11.424;2023-11-19T04:07:11;0.30;;;0.30;;
12275;SDS011;6200;48.144;11.424;2023-11-19T04:09:37;0.20;;;0.20;;
12275;SDS011;6200;48.144;11.424;2023-11-19T04:12:02;0.20;;;0.20;;
12275;SDS011;6200;48.144;11.424;2023-11-19T04:14:28;0.20;;;0.20;;
12275;SDS011;6200;48.144;11.424;2023-11-19T04:16:54;0.20;;;0.20;;
12275;SDS011;6200;48.144;11.424;2023-11-19T04:19:20;0.20;;;0.20;;
12275;SDS011;6200;48.144;11.424;2023-11-19T04:21:46;0.20;;;0.20;;
12275;SDS011;6200;48.144;11.424;2023-11-19T04:24:12;0.20;;;0.20;;
12275;SDS011;6200;48.144;11.424;2023-11-19T04:26:42;0.20;;;0.20;;
12275;SDS011;6200;48.144;11.424;2023-11-19T04:29:09;0.20;;;0.20;;
12275;SDS011;6200;48.144;11.424;2023-11-19T04:31:36;0.20;;;0.20;;
12275;SDS011;6200;48.144;11.424;2023-11-19T04:34:01;0.20;;;0.20;;
12275;SDS011;6200;48.144;11.424;2023-11-19T04:36:27;0.20;;;0.20;;
12275;SDS011;6200;48.144;11.424;2023-11-19T04:38:54;0.27;;;0.27;;
12275;SDS011;6200;48.144;11.424;2023-11-19T04:41:20;0.20;;;0.20;;
12275;SDS011;6200;48.144;11.424;2023-11-19T04:43:46;0.20;;;0.20;;
12275;SDS011;6200;48.144;11.424;2023-11-19T04:46:11;0.20;;;0.20;;
12275;SDS011;6200;48.144;11.424;2023-11-19T04:48:37;0.30;;;0.30;;
12275;SDS011;6200;48.144;11.424;2023-11-19T04:51:04;0.20;;;0.20;;
12275;SDS011;6200;48.144;11.424;2023-11-19T04:53:30;0.30;;;0.30;;
12275;SDS011;6200;48.144;11.424;2023-11-19T04:55:56;0.20;;;0.20;;
12275;SDS011;6200;48.144;11.424;2023-11-19T04:58:21;0.20;;;0.20;;
12275;SDS011;6200;48.144;11.424;2023-11-19T05:00:47;0.30;;;0.30;;
12275;SDS011;6200;48.144;11.424;2023-11-19T05:03:13;0.20;;;0.20;;
12275;SDS011;6200;48.144;11.424;2023-11-19T05:05:38;0.20;;;0.20;;
12275;SDS011;6200;48.144;11.424;2023-11-19T05:08:04;0.20;;;0.20;;
12275;SDS011;6200;48.144;11.424;2023-11-19T05:10:30;0.20;;;0.20;;
12275;SDS011;6200;48.144;11.424;2023-11-19T05:12:55;0.20;;;0.20;;
12275;SDS011;6200;48.144;11.424;2023-11-19T05:15:21;0.20;;;0.20;;
12275;SDS011;6200;48.144;11.424;2023-11-19T05:17:47;0.30;;;0.30;;
12275;SDS011;6200;48.144;11.424;2023-11-19T05:20:13;0.20;;;0.20;;
12275;SDS011;6200;48.144;11.424;2023-11-19T05:22:41;0.20;;;0.20;;
12275;SDS011;6200;48.144;11.424;2023-11-19T05:25:08;0.20;;;0.20;;
12275;SDS011;6200;48.144;11.424;2023-11-19T05:27:34;0.30;;;0.30;;
12275;SDS011;6200;48.144;11.424;2023-11-19T05:30:01;0.20;;;0.20;;
12275;SDS011;6200;48.144;11.424;2023-11-19T05:32:27;0.20;;;0.20;;
12275;SDS011;6200;48.144;11.424;2023-11-19T05:34:53;0.30;;;0.30;;
12275;SDS011;6200;48.144;11.424;2023-11-19T05:37:18;0.20;;;0.20;;
12275;SDS011;6200;48.144;11.424;2023-11-19T05:39:44;0.20;;;0.20;;
12275;SDS011;6200;48.144;11.424;2023-11-19T05:42:10;0.20;;;0.20;;
12275;SDS011;6200;48.144;11.424;2023-11-19T05:44:36;0.20;;;0.20;;
12275;SDS011;6200;48.144;11.424;2023-11-19T05:47:02;0.20;;;0.20;;
12275;SDS011;6200;48.144;11.424;2023-11-19T05:49:29;0.20;;;0.20;;
12275;SDS011;6200;48.144;11.424;2023-11-19T05:51:54;0.20;;;0.20;;
12275;SDS011;6200;48.144;11.424;2023-11-19T05:54:21;0.20;;;0.20;;
12275;SDS011;6200;48.144;11.424;2023-11-19T05:56:49;0.20;;;0.20;;
12275;SDS011;6200;48.144;11.424;2023-11-19T05:59:15;0.20;;;0.20;;
12275;SDS011;6200;48.144;11.424;2023-11-19T06:01:43;0.20;;;0.20;;
12275;SDS011;6200;48.144;11.424;2023-11-19T06:04:09;0.20;;;0.20;;
12275;SDS011;6200;48.144;11.424;2023-11-19T06:06:35;0.20;;;0.20;;
12275;SDS011;6200;48.144;11.424;2023-11-19T06:09:01;0.30;;;0.30;;
12275;SDS011;6200;48.144;11.424;2023-11-19T06:11:27;0.20;;;0.20;;
12275;SDS011;6200;48.144;11.424;2023-11-19T06:13:53;0.20;;;0.20;;
12275;SDS011;6200;48.144;11.424;2023-11-19T06:16:18;0.20;;;0.20;;
12275;SDS011;6200;48.144;11.424;2023-11-19T06:18:44;0.20;;;0.20;;
12275;SDS011;6200;48.144;11.424;2023-11-19T06:21:10;0.20;;;0.20;;
12275;SDS011;6200;48.144;11.424;2023-11-19T06:23:37;0.20;;;0.20;;
12275;SDS011;6200;48.144;11.424;2023-11-19T06:26:02;0.20;;;0.20;;
12275;SDS011;6200;48.144;11.424;2023-11-19T06:28:28;0.20;;;0.20;;
12275;SDS011;6200;48.144;11.424;2023-11-19T06:30:54;0.20;;;0.20;;
12275;SDS011;6200;48.144;11.424;2023-11-19T06:33:19;0.20;;;0.20;;
12275;SDS011;6200;48.144;11.424;2023-11-19T06:35:45;0.20;;;0.20;;
12275;SDS011;6200;48.144;11.424;2023-11-19T06:38:10;0.20;;;0.20;;
12275;SDS011;6200;48.144;11.424;2023-11-19T06:40:36;0.20;;;0.20;;
12275;SDS011;6200;48.144;11.424;2023-11-19T06:43:02;0.20;;;0.20;;
12275;SDS011;6200;48.144;11.424;2023-11-19T06:45:33;0.20;;;0.20;;
12275;SDS011;6200;48.144;11.424;2023-11-19T06:48:02;0.23;;;0.23;;
12275;SDS011;6200;48.144;11.424;2023-11-19T06:50:31;0.20;;;0.20;;
12275;SDS011;6200;48.144;11.424;2023-11-19T06:52:57;0.30;;;0.30;;
12275;SDS011;6200;48.144;11.424;2023-11-19T06:55:22;0.20;;;0.20;;
12275;SDS011;6200;48.144;11.424;2023-11-19T06:57:48;0.30;;;0.30;;
12275;SDS011;6200;48.144;11.424;2023-11-19T07:00:14;0.20;;;0.20;;
12275;SDS011;6200;48.144;11.424;2023-11-19T07:02:39;0.20;;;0.20;;
12275;SDS011;6200;48.144;11.424;2023-11-19T07:05:05;0.20;;;0.20;;
12275;SDS011;6200;48.144;11.424;2023-11-19T07:07:31;0.20;;;0.20;;
12275;SDS011;6200;48.144;11.424;2023-11-19T07:09:57;0.20;;;0.20;;
12275;SDS011;6200;48.144;11.424;2023-11-19T07:12:23;0.20;;;0.20;;
12275;SDS011;6200;48.144;11.424;2023-11-19T07:14:51;0.20;;;0.20;;
12275;SDS011;6200;48.144;11.424;2023-11-19T07:17:18;0.20;;;0.20;;
12275;SDS011;6200;48.144;11.424;2023-11-19T07:19:45;0.20;;;0.20;;
12275;SDS011;6200;48.144;11.424;2023-11-19T07:22:11;0.20;;;0.20;;
12275;SDS011;6200;48.144;11.424;2023-11-19T07:24:38;0.30;;;0.30;;
12275;SDS011;6200;48.144;11.424;2023-11-19T07:27:05;0.20;;;0.20;;
12275;SDS011;6200;48.144;11.424;2023-11-19T07:29:33;0.20;;;0.20;;
12275;SDS011;6200;48.144;11.424;2023-11-19T07:31:59;0.20;;;0.20;;
12275;SDS011;6200;48.144;11.424;2023-11-19T07:34:26;0.20;;;0.20;;
12275;SDS011;6200;48.144;11.424;2023-11-19T07:36:52;0.20;;;0.20;;
12275;SDS011;6200;48.144;11.424;2023-11-19T07:39:18;0.20;;;0.20;;
12275;SDS011;6200;48.144;11.424;2023-11-19T07:41:45;0.27;;;0.27;;
12275;SDS011;6200;48.144;11.424;2023-11-19T07:44:11;0.20;;;0.20;;
12275;SDS011;6200;48.144;11.424;2023-11-19T07:46:36;0.20;;;0.20;;
12275;SDS011;6200;48.144;11.424;2023-11-19T07:49:02;0.20;;;0.20;;
12275;SDS011;6200;48.144;11.424;2023-11-19T07:51:28;0.20;;;0.20;;
12275;SDS011;6200;48.144;11.424;2023-11-19T07:53:53;0.20;;;0.20;;
12275;SDS011;6200;48.144;11.424;2023-11-19T07:56:19;0.20;;;0.20;;
12275;SDS011;6200;48.144;11.424;2023-11-19T07:58:44;0.20;;;0.20;;
12275;SDS011;6200;48.144;11.424;2023-11-19T08:01:10;0.20;;;0.20;;
12275;SDS011;6200;48.144;11.424;2023-11-19T08:03:35;0.20;;;0.20;;
12275;SDS011;6200;48.144;11.424;2023-11-19T08:06:01;0.20;;;0.20;;
12275;SDS011;6200;48.144;11.424;2023-11-19T08:08:27;0.20;;;0.20;;
12275;SDS011;6200;48.144;11.424;2023-11-19T08:10:55;0.30;;;0.30;;
12275;SDS011;6200;48.144;11.424;2023-11-19T08:13:21;0.20;;;0.20;;
12275;SDS011;6200;48.144;11.424;2023-11-19T08:15:48;0.20;;;0.20;;
12275;SDS011;6200;48.144;11.424;2023-11-19T08:18:13;0.27;;;0.27;;
12275;SDS011;6200;48.144;11.424;2023-11-19T08:20:39;0.20;;;0.20;;
12275;SDS011;6200;48.144;11.424;2023-11-19T08:23:06;0.20;;;0.20;;
12275;SDS011;6200;48.144;11.424;2023-11-19T08:25:32;0.20;;;0.20;;
12275;SDS011;6200;48.144;11.424;2023-11-19T08:27:58;0.20;;;0.20;;
12275;SDS011;6200;48.144;11.424;2023-11-19T08:30:25;0.20;;;0.20;;
12275;SDS011;6200;48.144;11.424;2023-11-19T08:32:50;0.20;;;0.20;;
12275;SDS011;6200;48.144;11.424;2023-11-19T08:35:16;0.20;;;0.20;;
12275;SDS011;6200;48.144;11.424;2023-11-19T08:37:41;0.20;;;0.20;;
12275;SDS011;6200;48.144;11.424;2023-11-19T08:40:07;0.20;;;0.20;;
12275;SDS011;6200;48.144;11.424;2023-11-19T08:42:33;0.20;;;0.20;;
12275;SDS011;6200;48.144;11.424;2023-11-19T08:44:58;0.20;;;0.20;;
12275;SDS011;6200;48.144;11.424;2023-11-19T08:47:24;0.20;;;0.20;;
12275;SDS011;6200;48.144;11.424;2023-11-19T08:49:53;0.20;;;0.20;;
12275;SDS011;6200;48.144;11.424;2023-11-19T08:52:18;0.20;;;0.20;;
12275;SDS011;6200;48.144;11.424;2023-11-19T08:54:44;0.20;;;0.20;;
12275;SDS011;6200;48.144;11.424;2023-11-19T08:57:09;0.20;;;0.20;;
12275;SDS011;6200;48.144;11.424;2023-11-19T08:59:35;0.20;;;0.20;;
12275;SDS011;6200;48.144;11.424;2023-11-19T09:02:02;0.20;;;0.20;;
12275;SDS011;6200;48.144;11.424;2023-11-19T09:04:28;0.20;;;0.20;;
12275;SDS011;6200;48.144;11.424;2023-11-19T09:06:54;0.20;;;0.20;;
12275;SDS011;6200;48.144;11.424;2023-11-19T09:09:20;0.20;;;0.20;;
12275;SDS011;6200;48.144;11.424;2023-11-19T09:11:46;0.20;;;0.20;;
12275;SDS011;6200;48.144;11.424;2023-11-19T09:14:11;0.20;;;0.20;;
12275;SDS011;6200;48.144;11.424;2023-11-19T09:16:37;0.20;;;0.20;;
12275;SDS011;6200;48.144;11.424;2023-11-19T09:19:03;0.23;;;0.23;;
12275;SDS011;6200;48.144;11.424;2023-11-19T09:21:28;0.30;;;0.30;;
12275;SDS011;6200;48.144;11.424;2023-11-19T09:23:59;0.23;;;0.23;;
12275;SDS011;6200;48.144;11.424;2023-11-19T09:26:25;0.20;;;0.20;;
12275;SDS011;6200;48.144;11.424;2023-11-19T09:28:50;0.20;;;0.20;;
12275;SDS011;6200;48.144;11.424;2023-11-19T09:31:16;0.20;;;0.20;;
12275;SDS011;6200;48.144;11.424;2023-11-19T09:33:42;0.20;;;0.20;;
12275;SDS011;6200;48.144;11.424;2023-11-19T09:36:08;0.20;;;0.20;;
12275;SDS011;6200;48.144;11.424;2023-11-19T09:38:35;0.20;;;0.20;;
12275;SDS011;6200;48.144;11.424;2023-11-19T09:41:04;0.27;;;0.27;;
12275;SDS011;6200;48.144;11.424;2023-11-19T09:43:33;0.20;;;0.20;;
12275;SDS011;6200;48.144;11.424;2023-11-19T09:46:02;0.20;;;0.20;;
12275;SDS011;6200;48.144;11.424;2023-11-19T09:48:36;0.20;;;0.20;;
12275;SDS011;6200;48.144;11.424;2023-11-19T09:51:03;0.20;;;0.20;;
12275;SDS011;6200;48.144;11.424;2023-11-19T09:53:30;0.20;;;0.20;;
12275;SDS011;6200;48.144;11.424;2023-11-19T09:55:56;0.20;;;0.20;;
12275;SDS011;6200;48.144;11.424;2023-11-19T09:58:31;0.20;;;0.20;;
12275;SDS011;6200;48.144;11.424;2023-11-19T10:00:58;0.20;;;0.20;;
12275;SDS011;6200;48.144;11.424;2023-11-19T10:03:24;0.20;;;0.20;;
12275;SDS011;6200;48.144;11.424;2023-11-19T10:05:54;0.20;;;0.20;;
12275;SDS011;6200;48.144;11.424;2023-11-19T10:08:21;0.30;;;0.30;;
12275;SDS011;6200;48.144;11.424;2023-11-19T10:10:47;0.30;;;0.30;;
12275;SDS011;6200;48.144;11.424;2023-11-19T10:13:12;0.20;;;0.20;;
12275;SDS011;6200;48.144;11.424;2023-11-19T10:15:39;0.20;;;0.20;;
12275;SDS011;6200;48.144;11.424;2023-11-19T10:18:05;0.20;;;0.20;;
12275;SDS011;6200;48.144;11.424;2023-11-19T10:20:37;0.20;;;0.20;;
12275;SDS011;6200;48.144;11.424;2023-11-19T10:23:05;0.20;;;0.20;;
12275;SDS011;6200;48.144;11.424;2023-11-19T10:25:31;0.20;;;0.20;;
12275;SDS011;6200;48.144;11.424;2023-11-19T10:27:58;0.20;;;0.20;;
12275;SDS011;6200;48.144;11.424;2023-11-19T10:30:25;0.20;;;0.20;;
12275;SDS011;6200;48.144;11.424;2023-11-19T10:33:02;0.20;;;0.20;;
12275;SDS011;6200;48.144;11.424;2023-11-19T10:35:32;0.20;;;0.20;;
12275;SDS011;6200;48.144;11.424;2023-11-19T10:38:00;0.20;;;0.20;;
12275;SDS011;6200;48.144;11.424;2023-11-19T10:40:47;0.20;;;0.20;;
12275;SDS011;6200;48.144;11.424;2023-11-19T10:43:13;0.30;;;0.30;;
12275;SDS011;6200;48.144;11.424;2023-11-19T10:45:39;0.20;;;0.20;;
12275;SDS011;6200;48.144;11.424;2023-11-19T10:48:05;0.20;;;0.20;;
12275;SDS011;6200;48.144;11.424;2023-11-19T10:50:35;0.30;;;0.30;;
12275;SDS011;6200;48.144;11.424;2023-11-19T10:53:02;0.20;;;0.20;;
12275;SDS011;6200;48.144;11.424;2023-11-19T10:55:32;0.20;;;0.20;;
12275;SDS011;6200;48.144;11.424;2023-11-19T10:58:00;0.20;;;0.20;;
12275;SDS011;6200;48.144;11.424;2023-11-19T11:03:17;0.20;;;0.20;;
12275;SDS011;6200;48.144;11.424;2023-11-19T11:05:47;0.20;;;0.20;;
12275;SDS011;6200;48.144;11.424;2023-11-19T11:08:14;0.20;;;0.20;;
12275;SDS011;6200;48.144;11.424;2023-11-19T11:10:44;0.20;;;0.20;;
12275;SDS011;6200;48.144;11.424;2023-11-19T11:13:11;0.20;;;0.20;;
12275;SDS011;6200;48.144;11.424;2023-11-19T11:15:38;0.20;;;0.20;;
12275;SDS011;6200;48.144;11.424;2023-11-19T11:18:07;0.20;;;0.20;;
12275;SDS011;6200;48.144;11.424;2023-11-19T11:20:34;0.20;;;0.20;;
12275;SDS011;6200;48.144;11.424;2023-11-19T11:23:10;0.20;;;0.20;;
12275;SDS011;6200;48.144;11.424;2023-11-19T11:25:57;0.20;;;0.20;;
12275;SDS011;6200;48.144;11.424;2023-11-19T11:29:01;0.20;;;0.20;;
12275;SDS011;6200;48.144;11.424;2023-11-19T11:34:47;0.20;;;0.20;;
12275;SDS011;6200;48.144;11.424;2023-11-19T11:37:37;0.20;;;0.20;;
12275;SDS011;6200;48.144;11.424;2023-11-19T11:40:04;0.20;;;0.20;;
12275;SDS011;6200;48.144;11.424;2023-11-19T11:42:35;0.20;;;0.20;;
12275;SDS011;6200;48.144;11.424;2023-11-19T11:48:03;0.20;;;0.20;;
12275;SDS011;6200;48.144;11.424;2023-11-19T11:50:22;0.20;;;0.20;;
12275;SDS011;6200;48.144;11.424;2023-11-19T11:55:25;0.20;;;0.20;;
12275;SDS011;6200;48.144;11.424;2023-11-19T11:57:54;0.20;;;0.20;;
12275;SDS011;6200;48.144;11.424;2023-11-19T12:00:26;0.20;;;0.20;;
12275;SDS011;6200;48.144;11.424;2023-11-19T12:03:00;0.20;;;0.20;;
12275;SDS011;6200;48.144;11.424;2023-11-19T12:05:26;0.20;;;0.20;;
12275;SDS011;6200;48.144;11.424;2023-11-19T12:07:56;0.20;;;0.20;;
12275;SDS011;6200;48.144;11.424;2023-11-19T12:10:26;0.20;;;0.20;;
12275;SDS011;6200;48.144;11.424;2023-11-19T12:12:59;0.20;;;0.20;;
12275;SDS011;6200;48.144;11.424;2023-11-19T12:15:26;0.20;;;0.20;;
12275;SDS011;6200;48.144;11.424;2023-11-19T12:17:53;0.20;;;0.20;;
12275;SDS011;6200;48.144;11.424;2023-11-19T12:20:22;0.20;;;0.20;;
12275;SDS011;6200;48.144;11.424;2023-11-19T12:22:51;0.20;;;0.20;;
12275;SDS011;6200;48.144;11.424;2023-11-19T12:25:18;0.20;;;0.20;;
12275;SDS011;6200;48.144;11.424;2023-11-19T12:27:49;0.20;;;0.20;;
12275;SDS011;6200;48.144;11.424;2023-11-19T12:30:22;0.20;;;0.20;;
12275;SDS011;6200;48.144;11.424;2023-11-19T12:32:52;0.20;;;0.20;;
12275;SDS011;6200;48.144;11.424;2023-11-19T12:35:22;0.20;;;0.20;;
12275;SDS011;6200;48.144;11.424;2023-11-19T12:37:49;0.20;;;0.20;;
12275;SDS011;6200;48.144;11.424;2023-11-19T12:40:19;0.20;;;0.20;;
12275;SDS011;6200;48.144;11.424;2023-11-19T12:42:45;0.20;;;0.20;;
12275;SDS011;6200;48.144;11.424;2023-11-19T12:45:12;0.20;;;0.20;;
12275;SDS011;6200;48.144;11.424;2023-11-19T12:47:39;0.20;;;0.20;;
12275;SDS011;6200;48.144;11.424;2023-11-19T12:50:05;0.20;;;0.20;;
12275;SDS011;6200;48.144;11.424;2023-11-19T12:52:33;0.20;;;0.20;;
12275;SDS011;6200;48.144;11.424;2023-11-19T12:54:59;0.20;;;0.20;;
12275;SDS011;6200;48.144;11.424;2023-11-19T12:57:37;0.20;;;0.20;;
12275;SDS011;6200;48.144;11.424;2023-11-19T13:00:07;0.20;;;0.20;;
12275;SDS011;6200;48.144;11.424;2023-11-19T13:02:46;0.20;;;0.20;;
12275;SDS011;6200;48.144;11.424;2023-11-19T13:05:24;0.20;;;0.20;;
12275;SDS011;6200;48.144;11.424;2023-11-19T13:08:00;0.20;;;0.20;;
12275;SDS011;6200;48.144;11.424;2023-11-19T13:10:33;0.20;;;0.20;;
12275;SDS011;6200;48.144;11.424;2023-11-19T13:13:16;0.27;;;0.27;;
12275;SDS011;6200;48.144;11.424;2023-11-19T13:15:41;0.20;;;0.20;;
12275;SDS011;6200;48.144;11.424;2023-11-19T13:18:09;0.20;;;0.20;;
12275;SDS011;6200;48.144;11.424;2023-11-19T13:20:36;0.20;;;0.20;;
12275;SDS011;6200;48.144;11.424;2023-11-19T13:23:02;0.20;;;0.20;;
12275;SDS011;6200;48.144;11.424;2023-11-19T13:25:29;0.20;;;0.20;;
12275;SDS011;6200;48.144;11.424;2023-11-19T13:27:55;0.20;;;0.20;;
12275;SDS011;6200;48.144;11.424;2023-11-19T13:30:22;0.30;;;0.30;;
12275;SDS011;6200;48.144;11.424;2023-11-19T13:32:49;0.20;;;0.20;;
12275;SDS011;6200;48.144;11.424;2023-11-19T13:35:15;0.20;;;0.20;;
12275;SDS011;6200;48.144;11.424;2023-11-19T13:37:42;0.30;;;0.30;;
12275;SDS011;6200;48.144;11.424;2023-11-19T13:40:08;0.20;;;0.20;;
12275;SDS011;6200;48.144;11.424;2023-11-19T13:42:35;0.20;;;0.20;;
12275;SDS011;6200;48.144;11.424;2023-11-19T13:45:02;0.30;;;0.30;;
12275;SDS011;6200;48.144;11.424;2023-11-19T13:47:28;0.20;;;0.20;;
12275;SDS011;6200;48.144;11.424;2023-11-19T13:49:53;0.20;;;0.20;;
12275;SDS011;6200;48.144;11.424;2023-11-19T13:52:19;0.20;;;0.20;;
12275;SDS011;6200;48.144;11.424;2023-11-19T13:54:45;0.20;;;0.20;;
12275;SDS011;6200;48.144;11.424;2023-11-19T13:57:10;0.20;;;0.20;;
12275;SDS011;6200;48.144;11.424;2023-11-19T13:59:39;0.20;;;0.20;;
12275;SDS011;6200;48.144;11.424;2023-11-19T14:02:06;0.20;;;0.20;;
12275;SDS011;6200;48.144;11.424;2023-11-19T14:04:32;0.20;;;0.20;;
12275;SDS011;6200;48.144;11.424;2023-11-19T14:06:58;0.20;;;0.20;;
12275;SDS011;6200;48.144;11.424;2023-11-19T14:09:23;0.20;;;0.20;;
12275;SDS011;6200;48.144;11.424;2023-11-19T14:11:49;0.30;;;0.30;;
12275;SDS011;6200;48.144;11.424;2023-11-19T14:14:16;0.30;;;0.30;;
12275;SDS011;6200;48.144;11.424;2023-11-19T14:16:41;0.30;;;0.30;;
12275;SDS011;6200;48.144;11.424;2023-11-19T14:19:07;0.20;;;0.20;;
12275;SDS011;6200;48.144;11.424;2023-11-19T14:21:33;0.20;;;0.20;;
12275;SDS011;6200;48.144;11.424;2023-11-19T14:23:58;0.20;;;0.20;;
12275;SDS011;6200;48.144;11.424;2023-11-19T14:26:24;0.20;;;0.20;;
12275;SDS011;6200;48.144;11.424;2023-11-19T14:28:49;0.20;;;0.20;;
12275;SDS011;6200;48.144;11.424;2023-11-19T14:31:15;0.20;;;0.20;;
12275;SDS011;6200;48.144;11.424;2023-11-19T14:33:40;0.20;;;0.20;;
12275;SDS011;6200;48.144;11.424;2023-11-19T14:36:06;0.20;;;0.20;;
12275;SDS011;6200;48.144;11.424;2023-11-19T14:38:32;0.20;;;0.20;;
12275;SDS011;6200;48.144;11.424;2023-11-19T14:40:58;0.20;;;0.20;;
12275;SDS011;6200;48.144;11.424;2023-11-19T14:43:24;0.20;;;0.20;;
12275;SDS011;6200;48.144;11.424;2023-11-19T14:45:50;0.30;;;0.30;;
12275;SDS011;6200;48.144;11.424;2023-11-19T14:48:16;0.20;;;0.20;;
12275;SDS011;6200;48.144;11.424;2023-11-19T14:50:42;0.30;;;0.30;;
12275;SDS011;6200;48.144;11.424;2023-11-19T14:53:09;0.20;;;0.20;;
12275;SDS011;6200;48.144;11.424;2023-11-19T14:55:35;0.20;;;0.20;;
12275;SDS011;6200;48.144;11.424;2023-11-19T14:58:00;0.20;;;0.20;;
12275;SDS011;6200;48.144;11.424;2023-11-19T15:00:26;0.27;;;0.27;;